Austin, Texas
Traffic Map
Current Weather Conditions
Austin, Texas
Broken Clouds
Broken Clouds
29°
Feels Like: 32°
Wind Chill: 29° Ceiling: 3600
Heat Index: 32° Visibility: 10mi
Dew Point: 22° Wind: 0mph
Humidity: 67% Direction: ° ()
Pressure: 30.05in Gusts: 0mph
Raw Report DataKATT 271451Z AUTO 00000KT 10SM SCT027 BKN036 29/22 A3005 RMK AO2 SLP161 T02890222 51013
Traffic Incident Summary
Active as of:
Severity:
Category:
InformationThere was an issue retrieving the traffic information for this location. Please try a different location or try again shortly.
Advertisements
Track Severe Weather on mobile